sensor_id;sensor_type;location;lat;lon;timestamp;temperature;humidity
8945;DHT22;4507;40.232;29.132;2023-09-19T00:00:48;18.00;84.40
8945;DHT22;4507;40.232;29.132;2023-09-19T00:03:18;18.00;84.50
8945;DHT22;4507;40.232;29.132;2023-09-19T00:05:48;18.00;84.60
8945;DHT22;4507;40.232;29.132;2023-09-19T00:08:17;18.00;84.60
8945;DHT22;4507;40.232;29.132;2023-09-19T00:10:51;17.90;84.70
8945;DHT22;4507;40.232;29.132;2023-09-19T00:13:21;17.90;84.80
8945;DHT22;4507;40.232;29.132;2023-09-19T00:15:51;17.80;84.80
8945;DHT22;4507;40.232;29.132;2023-09-19T00:18:23;17.80;85.20
8945;DHT22;4507;40.232;29.132;2023-09-19T00:20:57;17.80;85.40
8945;DHT22;4507;40.232;29.132;2023-09-19T00:23:26;17.80;85.40
8945;DHT22;4507;40.232;29.132;2023-09-19T00:26:00;17.70;85.40
8945;DHT22;4507;40.232;29.132;2023-09-19T00:28:29;17.70;85.50
8945;DHT22;4507;40.232;29.132;2023-09-19T00:30:59;17.60;85.50
8945;DHT22;4507;40.232;29.132;2023-09-19T00:33:31;17.50;85.60
8945;DHT22;4507;40.232;29.132;2023-09-19T00:36:02;17.60;85.90
8945;DHT22;4507;40.232;29.132;2023-09-19T00:38:33;17.60;86.00
8945;DHT22;4507;40.232;29.132;2023-09-19T00:41:03;17.60;86.20
8945;DHT22;4507;40.232;29.132;2023-09-19T00:43:32;17.60;86.30
8945;DHT22;4507;40.232;29.132;2023-09-19T00:46:03;17.50;86.30
8945;DHT22;4507;40.232;29.132;2023-09-19T00:48:40;17.50;86.40
8945;DHT22;4507;40.232;29.132;2023-09-19T00:51:12;17.50;86.60
8945;DHT22;4507;40.232;29.132;2023-09-19T00:53:47;17.40;86.60
8945;DHT22;4507;40.232;29.132;2023-09-19T00:56:17;17.50;86.90
8945;DHT22;4507;40.232;29.132;2023-09-19T00:58:48;17.50;87.00
8945;DHT22;4507;40.232;29.132;2023-09-19T01:01:17;17.40;87.00
8945;DHT22;4507;40.232;29.132;2023-09-19T01:03:47;17.40;87.20
8945;DHT22;4507;40.232;29.132;2023-09-19T01:06:17;17.40;87.30
8945;DHT22;4507;40.232;29.132;2023-09-19T01:08:46;17.40;87.40
8945;DHT22;4507;40.232;29.132;2023-09-19T01:11:21;17.40;87.50
8945;DHT22;4507;40.232;29.132;2023-09-19T01:14:01;17.40;87.50
8945;DHT22;4507;40.232;29.132;2023-09-19T01:16:36;17.40;87.60
8945;DHT22;4507;40.232;29.132;2023-09-19T01:22:28;17.30;87.80
8945;DHT22;4507;40.232;29.132;2023-09-19T01:25:33;17.30;87.90
8945;DHT22;4507;40.232;29.132;2023-09-19T01:28:20;17.30;88.10
8945;DHT22;4507;40.232;29.132;2023-09-19T01:30:56;17.30;88.30
8945;DHT22;4507;40.232;29.132;2023-09-19T01:33:27;17.30;88.30
8945;DHT22;4507;40.232;29.132;2023-09-19T01:36:02;17.30;88.30
8945;DHT22;4507;40.232;29.132;2023-09-19T01:38:33;17.30;88.30
8945;DHT22;4507;40.232;29.132;2023-09-19T01:41:07;17.30;88.40
8945;DHT22;4507;40.232;29.132;2023-09-19T01:43:42;17.30;88.50
8945;DHT22;4507;40.232;29.132;2023-09-19T01:46:17;17.30;88.50
8945;DHT22;4507;40.232;29.132;2023-09-19T01:48:55;17.30;88.40
8945;DHT22;4507;40.232;29.132;2023-09-19T01:51:33;17.30;88.40
8945;DHT22;4507;40.232;29.132;2023-09-19T01:54:09;17.30;88.50
8945;DHT22;4507;40.232;29.132;2023-09-19T01:56:45;17.30;88.60
8945;DHT22;4507;40.232;29.132;2023-09-19T01:59:23;17.30;88.70
8945;DHT22;4507;40.232;29.132;2023-09-19T02:01:56;17.30;88.70
8945;DHT22;4507;40.232;29.132;2023-09-19T02:04:26;17.30;88.80
8945;DHT22;4507;40.232;29.132;2023-09-19T02:06:57;17.30;88.80
8945;DHT22;4507;40.232;29.132;2023-09-19T02:09:27;17.30;88.80
8945;DHT22;4507;40.232;29.132;2023-09-19T02:11:56;17.30;88.80
8945;DHT22;4507;40.232;29.132;2023-09-19T02:14:26;17.30;88.80
8945;DHT22;4507;40.232;29.132;2023-09-19T02:16:58;17.30;88.90
8945;DHT22;4507;40.232;29.132;2023-09-19T02:19:28;17.30;89.00
8945;DHT22;4507;40.232;29.132;2023-09-19T02:21:58;17.20;89.00
8945;DHT22;4507;40.232;29.132;2023-09-19T02:24:27;17.20;89.00
8945;DHT22;4507;40.232;29.132;2023-09-19T02:26:56;17.20;88.90
8945;DHT22;4507;40.232;29.132;2023-09-19T02:29:26;17.20;88.80
8945;DHT22;4507;40.232;29.132;2023-09-19T02:31:58;17.20;88.90
8945;DHT22;4507;40.232;29.132;2023-09-19T02:34:27;17.10;89.50
8945;DHT22;4507;40.232;29.132;2023-09-19T02:36:56;17.10;88.90
8945;DHT22;4507;40.232;29.132;2023-09-19T02:39:25;17.10;88.90
8945;DHT22;4507;40.232;29.132;2023-09-19T02:41:55;17.00;89.00
8945;DHT22;4507;40.232;29.132;2023-09-19T02:44:24;17.10;89.20
8945;DHT22;4507;40.232;29.132;2023-09-19T02:46:54;17.00;89.90
8945;DHT22;4507;40.232;29.132;2023-09-19T02:49:26;17.00;89.30
8945;DHT22;4507;40.232;29.132;2023-09-19T02:51:55;17.00;89.40
8945;DHT22;4507;40.232;29.132;2023-09-19T02:54:26;17.00;89.50
8945;DHT22;4507;40.232;29.132;2023-09-19T02:56:55;17.00;89.60
8945;DHT22;4507;40.232;29.132;2023-09-19T02:59:26;17.00;89.80
8945;DHT22;4507;40.232;29.132;2023-09-19T03:01:57;17.00;89.60
8945;DHT22;4507;40.232;29.132;2023-09-19T03:04:29;17.00;89.60
8945;DHT22;4507;40.232;29.132;2023-09-19T03:06:59;16.90;89.50
8945;DHT22;4507;40.232;29.132;2023-09-19T03:09:28;16.90;89.50
8945;DHT22;4507;40.232;29.132;2023-09-19T03:11:58;16.90;89.60
8945;DHT22;4507;40.232;29.132;2023-09-19T03:14:28;16.90;89.60
8945;DHT22;4507;40.232;29.132;2023-09-19T03:17:03;16.80;89.50
8945;DHT22;4507;40.232;29.132;2023-09-19T03:19:34;16.80;89.60
8945;DHT22;4507;40.232;29.132;2023-09-19T03:22:05;16.80;89.70
8945;DHT22;4507;40.232;29.132;2023-09-19T03:24:35;16.70;89.80
8945;DHT22;4507;40.232;29.132;2023-09-19T03:27:05;16.70;89.90
8945;DHT22;4507;40.232;29.132;2023-09-19T03:29:37;16.70;90.00
8945;DHT22;4507;40.232;29.132;2023-09-19T03:32:06;16.70;90.10
8945;DHT22;4507;40.232;29.132;2023-09-19T03:34:39;16.60;90.10
8945;DHT22;4507;40.232;29.132;2023-09-19T03:37:12;16.60;90.10
8945;DHT22;4507;40.232;29.132;2023-09-19T03:39:41;16.60;90.10
8945;DHT22;4507;40.232;29.132;2023-09-19T03:42:10;16.50;90.10
8945;DHT22;4507;40.232;29.132;2023-09-19T03:44:39;16.50;90.30
8945;DHT22;4507;40.232;29.132;2023-09-19T03:47:09;16.50;90.10
8945;DHT22;4507;40.232;29.132;2023-09-19T03:49:40;16.50;90.20
8945;DHT22;4507;40.232;29.132;2023-09-19T03:52:09;16.50;90.30
8945;DHT22;4507;40.232;29.132;2023-09-19T03:54:38;16.40;90.30
8945;DHT22;4507;40.232;29.132;2023-09-19T03:57:08;16.40;90.40
8945;DHT22;4507;40.232;29.132;2023-09-19T03:59:38;16.40;90.60
8945;DHT22;4507;40.232;29.132;2023-09-19T04:02:07;16.40;90.70
8945;DHT22;4507;40.232;29.132;2023-09-19T04:04:40;16.40;90.80
8945;DHT22;4507;40.232;29.132;2023-09-19T04:07:10;16.40;90.90
8945;DHT22;4507;40.232;29.132;2023-09-19T04:09:40;16.40;90.90
8945;DHT22;4507;40.232;29.132;2023-09-19T04:12:09;16.40;91.00
8945;DHT22;4507;40.232;29.132;2023-09-19T04:14:38;16.40;91.10
8945;DHT22;4507;40.232;29.132;2023-09-19T04:17:07;16.50;91.20
8945;DHT22;4507;40.232;29.132;2023-09-19T04:19:39;16.50;91.20
8945;DHT22;4507;40.232;29.132;2023-09-19T04:22:09;16.50;91.30
8945;DHT22;4507;40.232;29.132;2023-09-19T04:24:38;16.50;91.30
8945;DHT22;4507;40.232;29.132;2023-09-19T04:27:07;16.50;91.30
8945;DHT22;4507;40.232;29.132;2023-09-19T04:29:37;16.60;91.40
8945;DHT22;4507;40.232;29.132;2023-09-19T04:32:07;16.60;91.50
8945;DHT22;4507;40.232;29.132;2023-09-19T04:34:36;16.60;91.50
8945;DHT22;4507;40.232;29.132;2023-09-19T04:37:07;16.60;91.50
8945;DHT22;4507;40.232;29.132;2023-09-19T04:39:36;16.70;91.60
8945;DHT22;4507;40.232;29.132;2023-09-19T04:42:06;16.70;91.70
8945;DHT22;4507;40.232;29.132;2023-09-19T04:44:35;16.80;91.70
8945;DHT22;4507;40.232;29.132;2023-09-19T04:47:05;16.90;91.80
8945;DHT22;4507;40.232;29.132;2023-09-19T04:49:35;16.90;91.80
8945;DHT22;4507;40.232;29.132;2023-09-19T04:52:06;17.00;91.90
8945;DHT22;4507;40.232;29.132;2023-09-19T04:54:35;17.10;91.90
8945;DHT22;4507;40.232;29.132;2023-09-19T04:57:05;17.20;91.90
8945;DHT22;4507;40.232;29.132;2023-09-19T04:59:34;17.20;91.90
8945;DHT22;4507;40.232;29.132;2023-09-19T05:02:04;17.30;91.80
8945;DHT22;4507;40.232;29.132;2023-09-19T05:04:40;17.40;91.80
8945;DHT22;4507;40.232;29.132;2023-09-19T05:07:10;17.40;91.80
8945;DHT22;4507;40.232;29.132;2023-09-19T05:09:40;17.50;91.70
8945;DHT22;4507;40.232;29.132;2023-09-19T05:12:11;17.60;91.70
8945;DHT22;4507;40.232;29.132;2023-09-19T05:14:40;17.70;91.80
8945;DHT22;4507;40.232;29.132;2023-09-19T05:17:09;17.80;92.30
8945;DHT22;4507;40.232;29.132;2023-09-19T05:19:38;18.00;93.20
8945;DHT22;4507;40.232;29.132;2023-09-19T05:22:12;18.20;93.00
8945;DHT22;4507;40.232;29.132;2023-09-19T05:24:41;18.40;92.20
8945;DHT22;4507;40.232;29.132;2023-09-19T05:27:11;18.60;91.60
8945;DHT22;4507;40.232;29.132;2023-09-19T05:29:40;18.70;91.10
8945;DHT22;4507;40.232;29.132;2023-09-19T05:32:10;18.80;90.80
8945;DHT22;4507;40.232;29.132;2023-09-19T05:34:39;18.80;90.60
8945;DHT22;4507;40.232;29.132;2023-09-19T05:37:08;18.90;90.50
8945;DHT22;4507;40.232;29.132;2023-09-19T05:39:38;18.90;90.30
8945;DHT22;4507;40.232;29.132;2023-09-19T05:42:08;19.00;90.20
8945;DHT22;4507;40.232;29.132;2023-09-19T05:44:37;19.00;90.20
8945;DHT22;4507;40.232;29.132;2023-09-19T05:47:06;19.10;90.10
8945;DHT22;4507;40.232;29.132;2023-09-19T05:49:36;19.10;90.10
8945;DHT22;4507;40.232;29.132;2023-09-19T05:52:08;19.20;90.00
8945;DHT22;4507;40.232;29.132;2023-09-19T05:54:39;19.20;89.80
8945;DHT22;4507;40.232;29.132;2023-09-19T05:57:10;19.30;89.50
8945;DHT22;4507;40.232;29.132;2023-09-19T05:59:39;19.30;89.40
8945;DHT22;4507;40.232;29.132;2023-09-19T06:02:10;19.40;89.20
8945;DHT22;4507;40.232;29.132;2023-09-19T06:04:40;19.50;89.20
8945;DHT22;4507;40.232;29.132;2023-09-19T06:07:09;19.50;88.90
8945;DHT22;4507;40.232;29.132;2023-09-19T06:09:41;19.60;88.80
8945;DHT22;4507;40.232;29.132;2023-09-19T06:12:11;19.60;88.60
8945;DHT22;4507;40.232;29.132;2023-09-19T06:14:45;19.70;88.60
8945;DHT22;4507;40.232;29.132;2023-09-19T06:17:14;19.80;88.50
8945;DHT22;4507;40.232;29.132;2023-09-19T06:19:44;19.80;88.40
8945;DHT22;4507;40.232;29.132;2023-09-19T06:22:15;19.90;88.30
8945;DHT22;4507;40.232;29.132;2023-09-19T06:24:47;20.00;87.90
8945;DHT22;4507;40.232;29.132;2023-09-19T06:27:17;20.10;87.80
8945;DHT22;4507;40.232;29.132;2023-09-19T06:29:46;20.20;87.80
8945;DHT22;4507;40.232;29.132;2023-09-19T06:32:14;20.40;87.40
8945;DHT22;4507;40.232;29.132;2023-09-19T06:34:44;20.40;87.30
8945;DHT22;4507;40.232;29.132;2023-09-19T06:37:13;20.50;87.00
8945;DHT22;4507;40.232;29.132;2023-09-19T06:39:42;20.60;86.80
8945;DHT22;4507;40.232;29.132;2023-09-19T06:42:13;20.80;86.50
8945;DHT22;4507;40.232;29.132;2023-09-19T06:44:48;20.90;86.30
8945;DHT22;4507;40.232;29.132;2023-09-19T06:47:17;21.00;85.90
8945;DHT22;4507;40.232;29.132;2023-09-19T06:49:46;21.10;85.70
8945;DHT22;4507;40.232;29.132;2023-09-19T06:52:15;21.20;85.20
8945;DHT22;4507;40.232;29.132;2023-09-19T06:54:45;21.30;84.40
8945;DHT22;4507;40.232;29.132;2023-09-19T06:57:16;21.40;84.00
8945;DHT22;4507;40.232;29.132;2023-09-19T06:59:45;21.50;83.40
8945;DHT22;4507;40.232;29.132;2023-09-19T07:02:14;21.60;83.20
8945;DHT22;4507;40.232;29.132;2023-09-19T07:04:44;21.70;82.50
8945;DHT22;4507;40.232;29.132;2023-09-19T07:07:14;21.80;82.00
8945;DHT22;4507;40.232;29.132;2023-09-19T07:09:43;21.90;81.70
8945;DHT22;4507;40.232;29.132;2023-09-19T07:12:12;22.00;81.20
8945;DHT22;4507;40.232;29.132;2023-09-19T07:14:43;22.10;80.90
8945;DHT22;4507;40.232;29.132;2023-09-19T07:17:12;22.20;80.30
8945;DHT22;4507;40.232;29.132;2023-09-19T07:19:46;22.30;79.80
8945;DHT22;4507;40.232;29.132;2023-09-19T07:22:16;22.40;79.80
8945;DHT22;4507;40.232;29.132;2023-09-19T07:24:48;22.40;79.50
8945;DHT22;4507;40.232;29.132;2023-09-19T07:27:23;22.50;79.10
8945;DHT22;4507;40.232;29.132;2023-09-19T07:29:54;22.60;78.60
8945;DHT22;4507;40.232;29.132;2023-09-19T07:32:23;22.60;78.20
8945;DHT22;4507;40.232;29.132;2023-09-19T07:34:52;22.70;78.10
8945;DHT22;4507;40.232;29.132;2023-09-19T07:37:23;22.70;77.70
8945;DHT22;4507;40.232;29.132;2023-09-19T07:39:53;22.70;77.70
8945;DHT22;4507;40.232;29.132;2023-09-19T07:42:22;22.80;77.40
8945;DHT22;4507;40.232;29.132;2023-09-19T07:44:51;22.90;77.30
8945;DHT22;4507;40.232;29.132;2023-09-19T07:47:22;23.00;77.30
8945;DHT22;4507;40.232;29.132;2023-09-19T07:49:52;23.00;77.10
8945;DHT22;4507;40.232;29.132;2023-09-19T07:52:22;23.10;77.00
8945;DHT22;4507;40.232;29.132;2023-09-19T07:54:51;23.10;76.80
8945;DHT22;4507;40.232;29.132;2023-09-19T07:57:20;23.20;76.30
8945;DHT22;4507;40.232;29.132;2023-09-19T07:59:49;23.30;76.10
8945;DHT22;4507;40.232;29.132;2023-09-19T08:02:19;23.30;75.80
8945;DHT22;4507;40.232;29.132;2023-09-19T08:04:50;23.40;75.70
8945;DHT22;4507;40.232;29.132;2023-09-19T08:07:20;23.50;75.40
8945;DHT22;4507;40.232;29.132;2023-09-19T08:09:50;23.50;74.70
8945;DHT22;4507;40.232;29.132;2023-09-19T08:12:19;23.60;74.60
8945;DHT22;4507;40.232;29.132;2023-09-19T08:14:52;23.60;74.10
8945;DHT22;4507;40.232;29.132;2023-09-19T08:17:22;23.70;74.10
8945;DHT22;4507;40.232;29.132;2023-09-19T08:19:53;23.80;74.10
8945;DHT22;4507;40.232;29.132;2023-09-19T08:22:22;23.80;73.60
8945;DHT22;4507;40.232;29.132;2023-09-19T08:24:52;23.90;73.30
8945;DHT22;4507;40.232;29.132;2023-09-19T08:27:21;24.00;72.20
8945;DHT22;4507;40.232;29.132;2023-09-19T08:29:54;24.10;72.00
8945;DHT22;4507;40.232;29.132;2023-09-19T08:32:23;24.20;71.70
8945;DHT22;4507;40.232;29.132;2023-09-19T08:34:56;24.30;71.40
8945;DHT22;4507;40.232;29.132;2023-09-19T08:37:25;24.40;71.40
8945;DHT22;4507;40.232;29.132;2023-09-19T08:39:54;24.40;71.40
8945;DHT22;4507;40.232;29.132;2023-09-19T08:42:24;24.50;70.90
8945;DHT22;4507;40.232;29.132;2023-09-19T08:44:53;24.60;70.00
8945;DHT22;4507;40.232;29.132;2023-09-19T08:47:33;24.70;69.60
8945;DHT22;4507;40.232;29.132;2023-09-19T08:50:13;24.80;68.90
8945;DHT22;4507;40.232;29.132;2023-09-19T08:52:44;24.90;68.80
8945;DHT22;4507;40.232;29.132;2023-09-19T08:55:19;25.10;69.10
8945;DHT22;4507;40.232;29.132;2023-09-19T08:58:11;25.20;68.10
8945;DHT22;4507;40.232;29.132;2023-09-19T09:00:44;25.30;68.00
8945;DHT22;4507;40.232;29.132;2023-09-19T09:03:17;25.40;67.40
8945;DHT22;4507;40.232;29.132;2023-09-19T09:05:50;25.60;66.20
8945;DHT22;4507;40.232;29.132;2023-09-19T09:08:20;25.70;65.70
8945;DHT22;4507;40.232;29.132;2023-09-19T09:10:50;25.80;65.70
8945;DHT22;4507;40.232;29.132;2023-09-19T09:13:20;25.90;65.70
8945;DHT22;4507;40.232;29.132;2023-09-19T09:15:49;26.10;64.70
8945;DHT22;4507;40.232;29.132;2023-09-19T09:18:18;26.30;64.50
8945;DHT22;4507;40.232;29.132;2023-09-19T09:20:49;26.50;63.80
8945;DHT22;4507;40.232;29.132;2023-09-19T09:23:18;26.60;62.40
8945;DHT22;4507;40.232;29.132;2023-09-19T09:25:48;26.80;61.80
8945;DHT22;4507;40.232;29.132;2023-09-19T09:28:23;26.90;61.40
8945;DHT22;4507;40.232;29.132;2023-09-19T09:30:53;27.00;61.00
8945;DHT22;4507;40.232;29.132;2023-09-19T09:33:23;27.10;60.70
8945;DHT22;4507;40.232;29.132;2023-09-19T09:35:54;27.20;59.60
8945;DHT22;4507;40.232;29.132;2023-09-19T09:38:27;27.40;59.30
8945;DHT22;4507;40.232;29.132;2023-09-19T09:41:00;27.50;59.00
8945;DHT22;4507;40.232;29.132;2023-09-19T09:43:53;27.70;58.40
8945;DHT22;4507;40.232;29.132;2023-09-19T09:46:23;27.80;57.40
8945;DHT22;4507;40.232;29.132;2023-09-19T09:49:10;28.00;56.90
8945;DHT22;4507;40.232;29.132;2023-09-19T09:52:03;28.10;56.10
8945;DHT22;4507;40.232;29.132;2023-09-19T09:54:38;28.30;55.40
8945;DHT22;4507;40.232;29.132;2023-09-19T09:57:26;28.50;54.50
8945;DHT22;4507;40.232;29.132;2023-09-19T09:59:58;28.70;54.30
8945;DHT22;4507;40.232;29.132;2023-09-19T10:02:43;28.80;53.70
8945;DHT22;4507;40.232;29.132;2023-09-19T10:05:15;29.10;53.20
8945;DHT22;4507;40.232;29.132;2023-09-19T10:07:51;29.30;52.10
8945;DHT22;4507;40.232;29.132;2023-09-19T10:10:31;29.50;51.90
8945;DHT22;4507;40.232;29.132;2023-09-19T10:13:22;29.60;51.50
8945;DHT22;4507;40.232;29.132;2023-09-19T10:15:55;29.80;52.00
8945;DHT22;4507;40.232;29.132;2023-09-19T10:18:28;30.00;51.20
8945;DHT22;4507;40.232;29.132;2023-09-19T10:20:58;30.20;50.20
8945;DHT22;4507;40.232;29.132;2023-09-19T10:23:31;30.40;50.00
8945;DHT22;4507;40.232;29.132;2023-09-19T10:26:02;30.70;49.30
8945;DHT22;4507;40.232;29.132;2023-09-19T10:28:33;31.00;48.30
8945;DHT22;4507;40.232;29.132;2023-09-19T10:31:04;31.30;48.30
8945;DHT22;4507;40.232;29.132;2023-09-19T10:33:37;31.60;47.10
8945;DHT22;4507;40.232;29.132;2023-09-19T10:36:09;31.90;45.70
8945;DHT22;4507;40.232;29.132;2023-09-19T10:38:43;32.30;45.40
8945;DHT22;4507;40.232;29.132;2023-09-19T10:41:14;32.70;44.90
8945;DHT22;4507;40.232;29.132;2023-09-19T10:43:46;33.10;44.60
8945;DHT22;4507;40.232;29.132;2023-09-19T10:46:18;33.60;43.80
8945;DHT22;4507;40.232;29.132;2023-09-19T10:48:47;34.10;42.10
8945;DHT22;4507;40.232;29.132;2023-09-19T10:51:20;34.50;40.60
8945;DHT22;4507;40.232;29.132;2023-09-19T10:53:56;34.90;39.80
8945;DHT22;4507;40.232;29.132;2023-09-19T10:56:30;35.30;38.70
8945;DHT22;4507;40.232;29.132;2023-09-19T10:59:09;35.70;37.90
8945;DHT22;4507;40.232;29.132;2023-09-19T11:01:46;36.00;36.70
8945;DHT22;4507;40.232;29.132;2023-09-19T11:04:24;36.30;35.10
8945;DHT22;4507;40.232;29.132;2023-09-19T11:07:01;36.50;33.70
8945;DHT22;4507;40.232;29.132;2023-09-19T11:09:49;36.70;32.80
8945;DHT22;4507;40.232;29.132;2023-09-19T11:12:48;36.90;32.30
8945;DHT22;4507;40.232;29.132;2023-09-19T11:18:56;37.20;31.90
8945;DHT22;4507;40.232;29.132;2023-09-19T11:21:42;37.30;30.80
8945;DHT22;4507;40.232;29.132;2023-09-19T11:24:29;37.40;30.40
8945;DHT22;4507;40.232;29.132;2023-09-19T11:27:13;37.40;30.00
8945;DHT22;4507;40.232;29.132;2023-09-19T11:29:45;37.40;29.80
8945;DHT22;4507;40.232;29.132;2023-09-19T11:32:15;37.40;30.10
8945;DHT22;4507;40.232;29.132;2023-09-19T11:34:47;37.30;30.60
8945;DHT22;4507;40.232;29.132;2023-09-19T11:40:45;36.90;30.90
8945;DHT22;4507;40.232;29.132;2023-09-19T11:43:31;36.50;30.40
8945;DHT22;4507;40.232;29.132;2023-09-19T11:46:08;36.00;30.90
8945;DHT22;4507;40.232;29.132;2023-09-19T11:48:39;35.50;30.30
8945;DHT22;4507;40.232;29.132;2023-09-19T11:51:18;35.00;30.80
8945;DHT22;4507;40.232;29.132;2023-09-19T11:53:58;34.70;32.10
8945;DHT22;4507;40.232;29.132;2023-09-19T11:56:28;34.50;32.70
8945;DHT22;4507;40.232;29.132;2023-09-19T11:59:00;34.20;32.60
8945;DHT22;4507;40.232;29.132;2023-09-19T12:01:32;34.00;32.10
8945;DHT22;4507;40.232;29.132;2023-09-19T12:04:03;33.70;32.90
8945;DHT22;4507;40.232;29.132;2023-09-19T12:06:34;33.40;34.00
8945;DHT22;4507;40.232;29.132;2023-09-19T12:09:06;33.20;34.90
8945;DHT22;4507;40.232;29.132;2023-09-19T12:11:44;32.90;35.50
8945;DHT22;4507;40.232;29.132;2023-09-19T12:14:23;32.70;36.40
8945;DHT22;4507;40.232;29.132;2023-09-19T12:16:58;32.50;37.80
8945;DHT22;4507;40.232;29.132;2023-09-19T12:19:29;32.30;37.30
8945;DHT22;4507;40.232;29.132;2023-09-19T12:21:59;32.10;37.80
8945;DHT22;4507;40.232;29.132;2023-09-19T12:24:33;32.00;38.50
8945;DHT22;4507;40.232;29.132;2023-09-19T12:27:06;31.80;38.80
8945;DHT22;4507;40.232;29.132;2023-09-19T12:29:45;31.70;39.00
8945;DHT22;4507;40.232;29.132;2023-09-19T12:32:17;31.60;39.90
8945;DHT22;4507;40.232;29.132;2023-09-19T12:34:52;31.50;40.70
8945;DHT22;4507;40.232;29.132;2023-09-19T12:37:22;31.40;41.00
8945;DHT22;4507;40.232;29.132;2023-09-19T12:40:04;31.30;40.60
8945;DHT22;4507;40.232;29.132;2023-09-19T12:42:44;31.20;40.10
8945;DHT22;4507;40.232;29.132;2023-09-19T12:45:15;31.10;40.00
8945;DHT22;4507;40.232;29.132;2023-09-19T12:48:22;31.00;40.40
8945;DHT22;4507;40.232;29.132;2023-09-19T12:51:02;30.90;40.60
8945;DHT22;4507;40.232;29.132;2023-09-19T12:53:35;30.70;41.20
8945;DHT22;4507;40.232;29.132;2023-09-19T12:56:09;30.70;41.30
8945;DHT22;4507;40.232;29.132;2023-09-19T12:58:51;30.60;41.30
8945;DHT22;4507;40.232;29.132;2023-09-19T13:01:25;30.50;41.50
8945;DHT22;4507;40.232;29.132;2023-09-19T13:04:13;30.40;41.70
8945;DHT22;4507;40.232;29.132;2023-09-19T13:06:46;30.30;41.50
8945;DHT22;4507;40.232;29.132;2023-09-19T13:09:18;30.20;41.60
8945;DHT22;4507;40.232;29.132;2023-09-19T13:11:48;30.10;41.80
8945;DHT22;4507;40.232;29.132;2023-09-19T13:14:19;30.10;42.10
8945;DHT22;4507;40.232;29.132;2023-09-19T13:16:59;30.20;42.10
8945;DHT22;4507;40.232;29.132;2023-09-19T13:19:36;30.20;41.50
8945;DHT22;4507;40.232;29.132;2023-09-19T13:22:38;30.40;41.60
8945;DHT22;4507;40.232;29.132;2023-09-19T13:25:08;30.20;41.80
8945;DHT22;4507;40.232;29.132;2023-09-19T13:27:42;30.20;41.70
8945;DHT22;4507;40.232;29.132;2023-09-19T13:30:12;30.20;41.20
8945;DHT22;4507;40.232;29.132;2023-09-19T13:32:43;30.10;41.30
8945;DHT22;4507;40.232;29.132;2023-09-19T13:35:13;30.10;41.30
8945;DHT22;4507;40.232;29.132;2023-09-19T13:37:42;30.00;41.50
8945;DHT22;4507;40.232;29.132;2023-09-19T13:40:17;30.00;41.50
8945;DHT22;4507;40.232;29.132;2023-09-19T13:42:46;29.90;41.60
8945;DHT22;4507;40.232;29.132;2023-09-19T13:45:15;29.90;41.50
8945;DHT22;4507;40.232;29.132;2023-09-19T13:47:47;29.90;41.60
8945;DHT22;4507;40.232;29.132;2023-09-19T13:50:16;29.90;41.70
8945;DHT22;4507;40.232;29.132;2023-09-19T13:52:51;29.80;41.50
8945;DHT22;4507;40.232;29.132;2023-09-19T13:55:22;29.80;41.30
8945;DHT22;4507;40.232;29.132;2023-09-19T13:57:52;29.70;41.10
8945;DHT22;4507;40.232;29.132;2023-09-19T14:00:24;29.70;41.40
8945;DHT22;4507;40.232;29.132;2023-09-19T14:02:55;29.60;41.30
8945;DHT22;4507;40.232;29.132;2023-09-19T14:05:24;29.50;41.20
8945;DHT22;4507;40.232;29.132;2023-09-19T14:07:54;29.50;41.00
8945;DHT22;4507;40.232;29.132;2023-09-19T14:10:27;29.40;40.90
8945;DHT22;4507;40.232;29.132;2023-09-19T14:12:58;29.30;41.00
8945;DHT22;4507;40.232;29.132;2023-09-19T14:15:27;29.20;41.10
8945;DHT22;4507;40.232;29.132;2023-09-19T14:17:59;29.10;41.10
8945;DHT22;4507;40.232;29.132;2023-09-19T14:20:29;29.00;41.60
8945;DHT22;4507;40.232;29.132;2023-09-19T14:22:59;29.00;41.80
8945;DHT22;4507;40.232;29.132;2023-09-19T14:25:29;28.90;41.90
8945;DHT22;4507;40.232;29.132;2023-09-19T14:27:59;28.90;42.20
8945;DHT22;4507;40.232;29.132;2023-09-19T14:30:28;28.80;42.10
8945;DHT22;4507;40.232;29.132;2023-09-19T14:32:58;28.80;42.10
8945;DHT22;4507;40.232;29.132;2023-09-19T14:35:28;28.70;42.30
8945;DHT22;4507;40.232;29.132;2023-09-19T14:37:57;28.60;42.50
8945;DHT22;4507;40.232;29.132;2023-09-19T14:40:26;28.60;42.50
8945;DHT22;4507;40.232;29.132;2023-09-19T14:42:55;28.60;42.60
8945;DHT22;4507;40.232;29.132;2023-09-19T14:45:24;28.50;42.70
8945;DHT22;4507;40.232;29.132;2023-09-19T14:47:53;28.50;42.70
8945;DHT22;4507;40.232;29.132;2023-09-19T14:50:25;28.40;42.80
8945;DHT22;4507;40.232;29.132;2023-09-19T14:52:54;28.40;42.80
8945;DHT22;4507;40.232;29.132;2023-09-19T14:55:24;28.30;43.00
8945;DHT22;4507;40.232;29.132;2023-09-19T14:57:55;28.30;43.20
8945;DHT22;4507;40.232;29.132;2023-09-19T15:00:27;28.20;43.30
8945;DHT22;4507;40.232;29.132;2023-09-19T15:02:56;28.20;43.50
8945;DHT22;4507;40.232;29.132;2023-09-19T15:05:27;28.10;43.90
8945;DHT22;4507;40.232;29.132;2023-09-19T15:08:03;28.10;43.90
8945;DHT22;4507;40.232;29.132;2023-09-19T15:10:33;28.00;43.90
8945;DHT22;4507;40.232;29.132;2023-09-19T15:13:02;28.00;44.00
8945;DHT22;4507;40.232;29.132;2023-09-19T15:15:33;27.90;44.30
8945;DHT22;4507;40.232;29.132;2023-09-19T15:18:02;27.90;44.50
8945;DHT22;4507;40.232;29.132;2023-09-19T15:20:33;27.80;44.60
8945;DHT22;4507;40.232;29.132;2023-09-19T15:23:04;27.70;44.50
8945;DHT22;4507;40.232;29.132;2023-09-19T15:25:33;27.70;44.70
8945;DHT22;4507;40.232;29.132;2023-09-19T15:28:03;27.60;44.80
8945;DHT22;4507;40.232;29.132;2023-09-19T15:30:37;27.60;45.10
8945;DHT22;4507;40.232;29.132;2023-09-19T15:33:09;27.60;45.30
8945;DHT22;4507;40.232;29.132;2023-09-19T15:35:43;27.50;45.40
8945;DHT22;4507;40.232;29.132;2023-09-19T15:38:13;27.40;45.50
8945;DHT22;4507;40.232;29.132;2023-09-19T15:40:54;27.40;46.20
8945;DHT22;4507;40.232;29.132;2023-09-19T15:43:26;27.40;46.30
8945;DHT22;4507;40.232;29.132;2023-09-19T15:45:55;27.20;46.30
8945;DHT22;4507;40.232;29.132;2023-09-19T15:48:24;27.20;46.60
8945;DHT22;4507;40.232;29.132;2023-09-19T15:50:55;27.10;47.20
8945;DHT22;4507;40.232;29.132;2023-09-19T15:53:24;27.00;47.80
8945;DHT22;4507;40.232;29.132;2023-09-19T15:55:56;26.90;48.10
8945;DHT22;4507;40.232;29.132;2023-09-19T15:58:25;26.80;48.40
8945;DHT22;4507;40.232;29.132;2023-09-19T16:00:54;26.70;48.50
8945;DHT22;4507;40.232;29.132;2023-09-19T16:03:23;26.60;48.70
8945;DHT22;4507;40.232;29.132;2023-09-19T16:05:56;26.50;48.80
8945;DHT22;4507;40.232;29.132;2023-09-19T16:08:25;26.40;49.10
8945;DHT22;4507;40.232;29.132;2023-09-19T16:10:55;26.30;49.40
8945;DHT22;4507;40.232;29.132;2023-09-19T16:13:24;26.30;49.70
8945;DHT22;4507;40.232;29.132;2023-09-19T16:15:53;26.20;49.90
8945;DHT22;4507;40.232;29.132;2023-09-19T16:18:22;26.10;50.30
8945;DHT22;4507;40.232;29.132;2023-09-19T16:20:51;25.90;50.40
8945;DHT22;4507;40.232;29.132;2023-09-19T16:23:21;25.80;51.00
8945;DHT22;4507;40.232;29.132;2023-09-19T16:26:01;25.70;51.50